sensor_id;sensor_type;location;lat;lon;timestamp;P1;durP1;ratioP1;P2;durP2;ratioP2
11191;SDS011;5652;48.406;10.820;2023-05-07T00:01:50;7.15;;;3.90;;
11191;SDS011;5652;48.406;10.820;2023-05-07T00:04:18;7.07;;;5.30;;
11191;SDS011;5652;48.406;10.820;2023-05-07T00:06:45;9.20;;;4.67;;
11191;SDS011;5652;48.406;10.820;2023-05-07T00:09:14;8.93;;;4.25;;
11191;SDS011;5652;48.406;10.820;2023-05-07T00:11:41;6.05;;;4.35;;
11191;SDS011;5652;48.406;10.820;2023-05-07T00:14:08;7.85;;;4.53;;
11191;SDS011;5652;48.406;10.820;2023-05-07T00:16:36;7.45;;;5.00;;
11191;SDS011;5652;48.406;10.820;2023-05-07T00:19:03;8.25;;;4.70;;
11191;SDS011;5652;48.406;10.820;2023-05-07T00:21:30;7.65;;;4.63;;
11191;SDS011;5652;48.406;10.820;2023-05-07T00:23:57;8.20;;;4.90;;
11191;SDS011;5652;48.406;10.820;2023-05-07T00:26:26;7.05;;;4.43;;
11191;SDS011;5652;48.406;10.820;2023-05-07T00:28:53;8.60;;;4.63;;
11191;SDS011;5652;48.406;10.820;2023-05-07T00:31:20;5.85;;;4.32;;
11191;SDS011;5652;48.406;10.820;2023-05-07T00:33:47;8.35;;;4.82;;
11191;SDS011;5652;48.406;10.820;2023-05-07T00:36:14;7.28;;;4.68;;
11191;SDS011;5652;48.406;10.820;2023-05-07T00:38:41;7.47;;;5.25;;
11191;SDS011;5652;48.406;10.820;2023-05-07T00:41:08;7.35;;;4.38;;
11191;SDS011;5652;48.406;10.820;2023-05-07T00:43:36;7.15;;;4.35;;
11191;SDS011;5652;48.406;10.820;2023-05-07T00:46:04;6.87;;;4.37;;
11191;SDS011;5652;48.406;10.820;2023-05-07T00:48:31;7.03;;;4.28;;
11191;SDS011;5652;48.406;10.820;2023-05-07T00:50:58;6.82;;;4.65;;
11191;SDS011;5652;48.406;10.820;2023-05-07T00:53:25;7.15;;;4.53;;
11191;SDS011;5652;48.406;10.820;2023-05-07T00:55:52;8.15;;;4.80;;
11191;SDS011;5652;48.406;10.820;2023-05-07T00:58:20;10.45;;;4.90;;
11191;SDS011;5652;48.406;10.820;2023-05-07T01:00:50;5.60;;;4.50;;
11191;SDS011;5652;48.406;10.820;2023-05-07T01:03:17;6.50;;;4.53;;
11191;SDS011;5652;48.406;10.820;2023-05-07T01:05:44;7.65;;;4.68;;
11191;SDS011;5652;48.406;10.820;2023-05-07T01:08:12;7.07;;;4.60;;
11191;SDS011;5652;48.406;10.820;2023-05-07T01:10:44;6.40;;;4.43;;
11191;SDS011;5652;48.406;10.820;2023-05-07T01:13:11;6.43;;;4.40;;
11191;SDS011;5652;48.406;10.820;2023-05-07T01:15:39;6.45;;;4.18;;
11191;SDS011;5652;48.406;10.820;2023-05-07T01:18:07;6.80;;;4.57;;
11191;SDS011;5652;48.406;10.820;2023-05-07T01:20:34;7.63;;;4.50;;
11191;SDS011;5652;48.406;10.820;2023-05-07T01:23:03;6.97;;;4.40;;
11191;SDS011;5652;48.406;10.820;2023-05-07T01:25:31;9.52;;;4.20;;
11191;SDS011;5652;48.406;10.820;2023-05-07T01:27:58;6.68;;;4.75;;
11191;SDS011;5652;48.406;10.820;2023-05-07T01:30:26;5.15;;;3.97;;
11191;SDS011;5652;48.406;10.820;2023-05-07T01:32:56;4.90;;;3.80;;
11191;SDS011;5652;48.406;10.820;2023-05-07T01:35:27;8.75;;;4.40;;
11191;SDS011;5652;48.406;10.820;2023-05-07T01:37:55;8.27;;;4.10;;
11191;SDS011;5652;48.406;10.820;2023-05-07T01:40:23;7.65;;;4.32;;
11191;SDS011;5652;48.406;10.820;2023-05-07T01:42:51;6.75;;;4.40;;
11191;SDS011;5652;48.406;10.820;2023-05-07T01:45:19;6.30;;;4.25;;
11191;SDS011;5652;48.406;10.820;2023-05-07T01:47:46;8.37;;;4.87;;
11191;SDS011;5652;48.406;10.820;2023-05-07T01:50:13;6.18;;;4.57;;
11191;SDS011;5652;48.406;10.820;2023-05-07T01:52:42;7.40;;;4.55;;
11191;SDS011;5652;48.406;10.820;2023-05-07T01:55:09;6.70;;;4.20;;
11191;SDS011;5652;48.406;10.820;2023-05-07T01:57:38;7.18;;;4.78;;
11191;SDS011;5652;48.406;10.820;2023-05-07T02:00:06;7.10;;;4.97;;
11191;SDS011;5652;48.406;10.820;2023-05-07T02:02:34;6.80;;;4.30;;
11191;SDS011;5652;48.406;10.820;2023-05-07T02:05:01;9.02;;;4.70;;
11191;SDS011;5652;48.406;10.820;2023-05-07T02:07:28;8.93;;;5.00;;
11191;SDS011;5652;48.406;10.820;2023-05-07T02:09:55;7.55;;;5.28;;
11191;SDS011;5652;48.406;10.820;2023-05-07T02:12:23;9.55;;;5.13;;
11191;SDS011;5652;48.406;10.820;2023-05-07T02:14:51;7.97;;;5.20;;
11191;SDS011;5652;48.406;10.820;2023-05-07T02:17:18;7.37;;;5.10;;
11191;SDS011;5652;48.406;10.820;2023-05-07T02:19:45;7.28;;;4.90;;
11191;SDS011;5652;48.406;10.820;2023-05-07T02:22:12;7.25;;;5.35;;
11191;SDS011;5652;48.406;10.820;2023-05-07T02:24:40;9.13;;;5.13;;
11191;SDS011;5652;48.406;10.820;2023-05-07T02:27:07;7.17;;;5.10;;
11191;SDS011;5652;48.406;10.820;2023-05-07T02:29:34;7.40;;;5.43;;
11191;SDS011;5652;48.406;10.820;2023-05-07T02:32:03;8.07;;;5.43;;
11191;SDS011;5652;48.406;10.820;2023-05-07T02:34:30;6.40;;;4.97;;
11191;SDS011;5652;48.406;10.820;2023-05-07T02:36:57;7.72;;;5.40;;
11191;SDS011;5652;48.406;10.820;2023-05-07T02:39:24;7.20;;;4.57;;
11191;SDS011;5652;48.406;10.820;2023-05-07T02:41:52;8.57;;;5.47;;
11191;SDS011;5652;48.406;10.820;2023-05-07T02:44:19;7.25;;;5.18;;
11191;SDS011;5652;48.406;10.820;2023-05-07T02:46:46;6.90;;;4.80;;
11191;SDS011;5652;48.406;10.820;2023-05-07T02:49:14;7.97;;;4.93;;
11191;SDS011;5652;48.406;10.820;2023-05-07T02:51:41;6.60;;;4.95;;
11191;SDS011;5652;48.406;10.820;2023-05-07T02:54:09;6.13;;;4.83;;
11191;SDS011;5652;48.406;10.820;2023-05-07T02:56:36;7.15;;;4.70;;
11191;SDS011;5652;48.406;10.820;2023-05-07T02:59:03;8.38;;;5.10;;
11191;SDS011;5652;48.406;10.820;2023-05-07T03:01:30;5.50;;;4.38;;
11191;SDS011;5652;48.406;10.820;2023-05-07T03:03:57;8.50;;;5.07;;
11191;SDS011;5652;48.406;10.820;2023-05-07T03:06:26;9.40;;;5.38;;
11191;SDS011;5652;48.406;10.820;2023-05-07T03:08:53;8.70;;;5.10;;
11191;SDS011;5652;48.406;10.820;2023-05-07T03:11:20;8.13;;;4.85;;
11191;SDS011;5652;48.406;10.820;2023-05-07T03:13:47;8.55;;;4.78;;
11191;SDS011;5652;48.406;10.820;2023-05-07T03:16:15;9.48;;;5.40;;
11191;SDS011;5652;48.406;10.820;2023-05-07T03:18:42;8.15;;;5.53;;
11191;SDS011;5652;48.406;10.820;2023-05-07T03:21:09;9.00;;;5.13;;
11191;SDS011;5652;48.406;10.820;2023-05-07T03:23:38;11.40;;;5.00;;
11191;SDS011;5652;48.406;10.820;2023-05-07T03:26:05;8.05;;;4.97;;
11191;SDS011;5652;48.406;10.820;2023-05-07T03:28:32;8.47;;;4.90;;
11191;SDS011;5652;48.406;10.820;2023-05-07T03:30:59;7.35;;;4.55;;
11191;SDS011;5652;48.406;10.820;2023-05-07T03:33:27;7.53;;;4.60;;
11191;SDS011;5652;48.406;10.820;2023-05-07T03:35:54;7.25;;;4.40;;
11191;SDS011;5652;48.406;10.820;2023-05-07T03:38:21;6.70;;;4.10;;
11191;SDS011;5652;48.406;10.820;2023-05-07T03:40:49;7.15;;;3.83;;
11191;SDS011;5652;48.406;10.820;2023-05-07T03:43:17;4.50;;;3.65;;
11191;SDS011;5652;48.406;10.820;2023-05-07T03:45:44;6.57;;;3.83;;
11191;SDS011;5652;48.406;10.820;2023-05-07T03:48:11;6.47;;;3.75;;
11191;SDS011;5652;48.406;10.820;2023-05-07T03:50:38;6.57;;;3.63;;
11191;SDS011;5652;48.406;10.820;2023-05-07T03:53:05;5.95;;;4.00;;
11191;SDS011;5652;48.406;10.820;2023-05-07T03:55:32;7.78;;;4.10;;
11191;SDS011;5652;48.406;10.820;2023-05-07T03:58:01;8.68;;;5.20;;
11191;SDS011;5652;48.406;10.820;2023-05-07T04:00:29;8.32;;;5.35;;
11191;SDS011;5652;48.406;10.820;2023-05-07T04:02:58;13.13;;;5.50;;
11191;SDS011;5652;48.406;10.820;2023-05-07T04:05:25;6.80;;;5.13;;
11191;SDS011;5652;48.406;10.820;2023-05-07T04:07:52;6.20;;;4.43;;
11191;SDS011;5652;48.406;10.820;2023-05-07T04:10:20;8.38;;;5.05;;
11191;SDS011;5652;48.406;10.820;2023-05-07T04:12:47;10.23;;;4.95;;
11191;SDS011;5652;48.406;10.820;2023-05-07T04:15:15;7.00;;;4.70;;
11191;SDS011;5652;48.406;10.820;2023-05-07T04:17:42;7.15;;;4.60;;
11191;SDS011;5652;48.406;10.820;2023-05-07T04:20:16;7.03;;;4.30;;
11191;SDS011;5652;48.406;10.820;2023-05-07T04:22:43;7.15;;;4.07;;
11191;SDS011;5652;48.406;10.820;2023-05-07T04:25:10;6.25;;;4.25;;
11191;SDS011;5652;48.406;10.820;2023-05-07T04:27:37;5.77;;;4.60;;
11191;SDS011;5652;48.406;10.820;2023-05-07T04:30:05;7.78;;;4.75;;
11191;SDS011;5652;48.406;10.820;2023-05-07T04:32:34;8.10;;;4.97;;
11191;SDS011;5652;48.406;10.820;2023-05-07T04:35:02;7.28;;;4.90;;
11191;SDS011;5652;48.406;10.820;2023-05-07T04:37:29;6.60;;;4.95;;
11191;SDS011;5652;48.406;10.820;2023-05-07T04:39:58;7.18;;;4.70;;
11191;SDS011;5652;48.406;10.820;2023-05-07T04:42:25;7.15;;;4.55;;
11191;SDS011;5652;48.406;10.820;2023-05-07T04:44:53;7.40;;;4.55;;
11191;SDS011;5652;48.406;10.820;2023-05-07T04:47:20;7.00;;;4.50;;
11191;SDS011;5652;48.406;10.820;2023-05-07T04:49:49;7.25;;;4.45;;
11191;SDS011;5652;48.406;10.820;2023-05-07T04:52:16;11.90;;;4.68;;
11191;SDS011;5652;48.406;10.820;2023-05-07T04:54:43;8.38;;;4.50;;
11191;SDS011;5652;48.406;10.820;2023-05-07T04:57:10;8.05;;;4.13;;
11191;SDS011;5652;48.406;10.820;2023-05-07T04:59:37;6.97;;;4.70;;
11191;SDS011;5652;48.406;10.820;2023-05-07T05:02:04;6.50;;;4.63;;
11191;SDS011;5652;48.406;10.820;2023-05-07T05:04:31;5.85;;;4.38;;
11191;SDS011;5652;48.406;10.820;2023-05-07T05:07:00;5.57;;;4.32;;
11191;SDS011;5652;48.406;10.820;2023-05-07T05:09:28;7.85;;;4.88;;
11191;SDS011;5652;48.406;10.820;2023-05-07T05:11:55;5.10;;;4.03;;
11191;SDS011;5652;48.406;10.820;2023-05-07T05:14:22;6.88;;;4.22;;
11191;SDS011;5652;48.406;10.820;2023-05-07T05:16:50;5.88;;;3.97;;
11191;SDS011;5652;48.406;10.820;2023-05-07T05:19:17;5.75;;;4.55;;
11191;SDS011;5652;48.406;10.820;2023-05-07T05:21:44;6.83;;;5.43;;
11191;SDS011;5652;48.406;10.820;2023-05-07T05:24:13;6.60;;;4.80;;
11191;SDS011;5652;48.406;10.820;2023-05-07T05:26:40;8.13;;;4.22;;
11191;SDS011;5652;48.406;10.820;2023-05-07T05:29:07;7.00;;;4.50;;
11191;SDS011;5652;48.406;10.820;2023-05-07T05:31:34;6.35;;;4.20;;
11191;SDS011;5652;48.406;10.820;2023-05-07T05:34:02;7.75;;;4.70;;
11191;SDS011;5652;48.406;10.820;2023-05-07T05:36:29;6.50;;;4.93;;
11191;SDS011;5652;48.406;10.820;2023-05-07T05:38:58;7.53;;;4.87;;
11191;SDS011;5652;48.406;10.820;2023-05-07T05:41:26;6.43;;;4.82;;
11191;SDS011;5652;48.406;10.820;2023-05-07T05:43:53;6.03;;;4.57;;
11191;SDS011;5652;48.406;10.820;2023-05-07T05:46:21;6.57;;;4.85;;
11191;SDS011;5652;48.406;10.820;2023-05-07T05:48:48;5.27;;;4.10;;
11191;SDS011;5652;48.406;10.820;2023-05-07T05:51:15;5.47;;;3.83;;
11191;SDS011;5652;48.406;10.820;2023-05-07T05:53:42;6.87;;;4.23;;
11191;SDS011;5652;48.406;10.820;2023-05-07T05:56:09;5.82;;;4.38;;
11191;SDS011;5652;48.406;10.820;2023-05-07T05:58:38;4.47;;;3.80;;
11191;SDS011;5652;48.406;10.820;2023-05-07T06:01:05;6.28;;;3.90;;
11191;SDS011;5652;48.406;10.820;2023-05-07T06:03:32;4.18;;;3.60;;
11191;SDS011;5652;48.406;10.820;2023-05-07T06:06:00;5.85;;;3.70;;
11191;SDS011;5652;48.406;10.820;2023-05-07T06:08:29;4.22;;;3.63;;
11191;SDS011;5652;48.406;10.820;2023-05-07T06:10:56;4.50;;;3.60;;
11191;SDS011;5652;48.406;10.820;2023-05-07T06:13:23;3.97;;;3.27;;
11191;SDS011;5652;48.406;10.820;2023-05-07T06:15:52;4.25;;;3.40;;
11191;SDS011;5652;48.406;10.820;2023-05-07T06:18:19;5.20;;;3.42;;
11191;SDS011;5652;48.406;10.820;2023-05-07T06:20:46;5.25;;;3.20;;
11191;SDS011;5652;48.406;10.820;2023-05-07T06:23:13;4.20;;;3.50;;
11191;SDS011;5652;48.406;10.820;2023-05-07T06:25:41;4.32;;;3.50;;
11191;SDS011;5652;48.406;10.820;2023-05-07T06:28:08;4.15;;;3.20;;
11191;SDS011;5652;48.406;10.820;2023-05-07T06:30:36;4.18;;;3.50;;
11191;SDS011;5652;48.406;10.820;2023-05-07T06:33:04;4.63;;;3.10;;
11191;SDS011;5652;48.406;10.820;2023-05-07T06:35:31;4.77;;;3.40;;
11191;SDS011;5652;48.406;10.820;2023-05-07T06:37:59;3.60;;;3.10;;
11191;SDS011;5652;48.406;10.820;2023-05-07T06:40:26;3.85;;;3.00;;
11191;SDS011;5652;48.406;10.820;2023-05-07T06:42:53;4.10;;;3.20;;
11191;SDS011;5652;48.406;10.820;2023-05-07T06:45:20;3.70;;;3.25;;
11191;SDS011;5652;48.406;10.820;2023-05-07T06:47:47;4.68;;;3.45;;
11191;SDS011;5652;48.406;10.820;2023-05-07T06:50:17;4.80;;;3.28;;
11191;SDS011;5652;48.406;10.820;2023-05-07T06:52:44;5.68;;;3.38;;
11191;SDS011;5652;48.406;10.820;2023-05-07T06:55:12;3.95;;;3.35;;
11191;SDS011;5652;48.406;10.820;2023-05-07T06:57:39;5.13;;;3.40;;
11191;SDS011;5652;48.406;10.820;2023-05-07T07:00:06;3.50;;;3.20;;
11191;SDS011;5652;48.406;10.820;2023-05-07T07:02:34;4.47;;;3.40;;
11191;SDS011;5652;48.406;10.820;2023-05-07T07:05:02;3.85;;;3.30;;
11191;SDS011;5652;48.406;10.820;2023-05-07T07:07:30;4.88;;;3.60;;
11191;SDS011;5652;48.406;10.820;2023-05-07T07:09:57;5.10;;;3.83;;
11191;SDS011;5652;48.406;10.820;2023-05-07T07:12:24;3.80;;;3.40;;
11191;SDS011;5652;48.406;10.820;2023-05-07T07:14:51;4.10;;;3.53;;
11191;SDS011;5652;48.406;10.820;2023-05-07T07:17:18;4.10;;;3.67;;
11191;SDS011;5652;48.406;10.820;2023-05-07T07:19:46;4.05;;;3.45;;
11191;SDS011;5652;48.406;10.820;2023-05-07T07:22:13;3.90;;;3.50;;
11191;SDS011;5652;48.406;10.820;2023-05-07T07:24:41;4.38;;;3.65;;
11191;SDS011;5652;48.406;10.820;2023-05-07T07:27:08;7.05;;;3.47;;
11191;SDS011;5652;48.406;10.820;2023-05-07T07:29:35;5.35;;;3.40;;
11191;SDS011;5652;48.406;10.820;2023-05-07T07:32:05;5.05;;;3.83;;
11191;SDS011;5652;48.406;10.820;2023-05-07T07:34:32;5.05;;;3.80;;
11191;SDS011;5652;48.406;10.820;2023-05-07T07:36:59;4.78;;;3.60;;
11191;SDS011;5652;48.406;10.820;2023-05-07T07:39:30;4.70;;;4.00;;
11191;SDS011;5652;48.406;10.820;2023-05-07T07:41:58;4.32;;;3.90;;
11191;SDS011;5652;48.406;10.820;2023-05-07T07:44:26;5.35;;;4.00;;
11191;SDS011;5652;48.406;10.820;2023-05-07T07:46:53;4.82;;;3.78;;
11191;SDS011;5652;48.406;10.820;2023-05-07T07:49:20;4.88;;;4.00;;
11191;SDS011;5652;48.406;10.820;2023-05-07T07:51:47;4.13;;;3.72;;
11191;SDS011;5652;48.406;10.820;2023-05-07T07:54:16;5.65;;;3.88;;
11191;SDS011;5652;48.406;10.820;2023-05-07T07:56:43;4.15;;;3.75;;
11191;SDS011;5652;48.406;10.820;2023-05-07T07:59:11;5.30;;;3.80;;
11191;SDS011;5652;48.406;10.820;2023-05-07T08:01:42;5.53;;;3.50;;
11191;SDS011;5652;48.406;10.820;2023-05-07T08:04:09;4.97;;;3.47;;
11191;SDS011;5652;48.406;10.820;2023-05-07T08:06:36;4.70;;;3.50;;
11191;SDS011;5652;48.406;10.820;2023-05-07T08:09:04;4.00;;;3.55;;
11191;SDS011;5652;48.406;10.820;2023-05-07T08:11:31;4.53;;;3.60;;
11191;SDS011;5652;48.406;10.820;2023-05-07T08:13:58;4.73;;;3.90;;
11191;SDS011;5652;48.406;10.820;2023-05-07T08:16:26;3.90;;;3.50;;
11191;SDS011;5652;48.406;10.820;2023-05-07T08:18:53;6.00;;;3.70;;
11191;SDS011;5652;48.406;10.820;2023-05-07T08:21:21;7.18;;;3.78;;
11191;SDS011;5652;48.406;10.820;2023-05-07T08:23:48;4.23;;;3.53;;
11191;SDS011;5652;48.406;10.820;2023-05-07T08:26:16;4.13;;;3.30;;
11191;SDS011;5652;48.406;10.820;2023-05-07T08:28:43;4.40;;;3.28;;
11191;SDS011;5652;48.406;10.820;2023-05-07T08:31:10;4.75;;;3.30;;
11191;SDS011;5652;48.406;10.820;2023-05-07T08:33:38;4.55;;;3.45;;
11191;SDS011;5652;48.406;10.820;2023-05-07T08:36:05;4.68;;;3.40;;
11191;SDS011;5652;48.406;10.820;2023-05-07T08:38:33;5.03;;;3.03;;
11191;SDS011;5652;48.406;10.820;2023-05-07T08:41:00;4.28;;;3.10;;
11191;SDS011;5652;48.406;10.820;2023-05-07T08:43:27;3.30;;;2.80;;
11191;SDS011;5652;48.406;10.820;2023-05-07T08:45:55;4.43;;;2.72;;
11191;SDS011;5652;48.406;10.820;2023-05-07T08:48:25;3.27;;;2.70;;
11191;SDS011;5652;48.406;10.820;2023-05-07T08:50:53;4.53;;;2.60;;
11191;SDS011;5652;48.406;10.820;2023-05-07T08:53:20;3.50;;;2.90;;
11191;SDS011;5652;48.406;10.820;2023-05-07T08:55:50;3.28;;;2.80;;
11191;SDS011;5652;48.406;10.820;2023-05-07T08:58:18;2.75;;;2.20;;
11191;SDS011;5652;48.406;10.820;2023-05-07T09:00:45;2.97;;;2.63;;
11191;SDS011;5652;48.406;10.820;2023-05-07T09:03:13;4.30;;;2.47;;
11191;SDS011;5652;48.406;10.820;2023-05-07T09:05:40;3.67;;;2.53;;
11191;SDS011;5652;48.406;10.820;2023-05-07T09:08:10;3.07;;;2.70;;
11191;SDS011;5652;48.406;10.820;2023-05-07T09:10:41;3.20;;;2.88;;
11191;SDS011;5652;48.406;10.820;2023-05-07T09:13:08;4.80;;;3.42;;
11191;SDS011;5652;48.406;10.820;2023-05-07T09:15:38;4.50;;;2.77;;
11191;SDS011;5652;48.406;10.820;2023-05-07T09:18:05;3.97;;;2.80;;
11191;SDS011;5652;48.406;10.820;2023-05-07T09:20:32;2.67;;;2.13;;
11191;SDS011;5652;48.406;10.820;2023-05-07T09:23:00;3.27;;;2.30;;
11191;SDS011;5652;48.406;10.820;2023-05-07T09:25:29;4.10;;;2.45;;
11191;SDS011;5652;48.406;10.820;2023-05-07T09:27:56;3.50;;;2.47;;
11191;SDS011;5652;48.406;10.820;2023-05-07T09:30:27;3.22;;;2.25;;
11191;SDS011;5652;48.406;10.820;2023-05-07T09:32:54;3.08;;;2.30;;
11191;SDS011;5652;48.406;10.820;2023-05-07T09:35:22;3.45;;;1.80;;
11191;SDS011;5652;48.406;10.820;2023-05-07T09:37:52;3.07;;;1.90;;
11191;SDS011;5652;48.406;10.820;2023-05-07T09:40:26;1.88;;;1.67;;
11191;SDS011;5652;48.406;10.820;2023-05-07T09:42:55;3.15;;;1.70;;
11191;SDS011;5652;48.406;10.820;2023-05-07T09:45:22;4.38;;;2.00;;
11191;SDS011;5652;48.406;10.820;2023-05-07T09:47:53;2.70;;;1.77;;
11191;SDS011;5652;48.406;10.820;2023-05-07T09:50:22;1.60;;;1.50;;
11191;SDS011;5652;48.406;10.820;2023-05-07T09:52:52;2.33;;;1.70;;
11191;SDS011;5652;48.406;10.820;2023-05-07T09:55:20;2.10;;;1.60;;
11191;SDS011;5652;48.406;10.820;2023-05-07T09:57:48;4.00;;;1.77;;
11191;SDS011;5652;48.406;10.820;2023-05-07T10:00:18;3.58;;;1.70;;
11191;SDS011;5652;48.406;10.820;2023-05-07T10:02:46;1.40;;;1.30;;
11191;SDS011;5652;48.406;10.820;2023-05-07T10:05:14;3.25;;;1.70;;
11191;SDS011;5652;48.406;10.820;2023-05-07T10:07:41;3.10;;;1.60;;
11191;SDS011;5652;48.406;10.820;2023-05-07T10:10:08;2.00;;;1.50;;
11191;SDS011;5652;48.406;10.820;2023-05-07T10:12:36;2.38;;;1.45;;
11191;SDS011;5652;48.406;10.820;2023-05-07T10:15:05;3.05;;;1.30;;
11191;SDS011;5652;48.406;10.820;2023-05-07T10:17:34;2.15;;;1.40;;
11191;SDS011;5652;48.406;10.820;2023-05-07T10:20:02;2.33;;;1.50;;
11191;SDS011;5652;48.406;10.820;2023-05-07T10:22:30;2.50;;;1.70;;
11191;SDS011;5652;48.406;10.820;2023-05-07T10:24:58;3.13;;;1.60;;
11191;SDS011;5652;48.406;10.820;2023-05-07T10:27:26;1.73;;;1.60;;
11191;SDS011;5652;48.406;10.820;2023-05-07T10:29:55;2.28;;;1.40;;
11191;SDS011;5652;48.406;10.820;2023-05-07T10:32:30;3.28;;;1.70;;
11191;SDS011;5652;48.406;10.820;2023-05-07T10:35:02;1.67;;;1.25;;
11191;SDS011;5652;48.406;10.820;2023-05-07T10:37:31;2.63;;;1.50;;
11191;SDS011;5652;48.406;10.820;2023-05-07T10:39:58;2.40;;;1.50;;
11191;SDS011;5652;48.406;10.820;2023-05-07T10:42:25;2.70;;;1.40;;
11191;SDS011;5652;48.406;10.820;2023-05-07T10:44:53;1.60;;;1.37;;
11191;SDS011;5652;48.406;10.820;2023-05-07T10:47:20;1.88;;;1.38;;
11191;SDS011;5652;48.406;10.820;2023-05-07T10:52:34;2.33;;;1.40;;
11191;SDS011;5652;48.406;10.820;2023-05-07T10:55:20;1.60;;;1.30;;
11191;SDS011;5652;48.406;10.820;2023-05-07T10:57:50;2.42;;;1.30;;
11191;SDS011;5652;48.406;10.820;2023-05-07T11:03:04;1.38;;;1.27;;
11191;SDS011;5652;48.406;10.820;2023-05-07T11:05:32;2.17;;;1.30;;
11191;SDS011;5652;48.406;10.820;2023-05-07T11:08:01;1.70;;;1.30;;
11191;SDS011;5652;48.406;10.820;2023-05-07T11:10:47;2.10;;;1.40;;
11191;SDS011;5652;48.406;10.820;2023-05-07T11:13:14;1.40;;;1.30;;
11191;SDS011;5652;48.406;10.820;2023-05-07T11:15:43;3.20;;;1.25;;
11191;SDS011;5652;48.406;10.820;2023-05-07T11:18:10;1.98;;;1.45;;
11191;SDS011;5652;48.406;10.820;2023-05-07T11:20:44;1.80;;;1.30;;
11191;SDS011;5652;48.406;10.820;2023-05-07T11:25:59;2.45;;;1.42;;
11191;SDS011;5652;48.406;10.820;2023-05-07T11:28:27;1.83;;;1.50;;
11191;SDS011;5652;48.406;10.820;2023-05-07T11:30:54;1.60;;;1.42;;
11191;SDS011;5652;48.406;10.820;2023-05-07T11:33:23;1.90;;;1.33;;
11191;SDS011;5652;48.406;10.820;2023-05-07T11:35:52;2.40;;;1.48;;
11191;SDS011;5652;48.406;10.820;2023-05-07T11:38:19;1.70;;;1.40;;
11191;SDS011;5652;48.406;10.820;2023-05-07T11:40:50;3.40;;;1.90;;
11191;SDS011;5652;48.406;10.820;2023-05-07T11:43:19;3.33;;;1.50;;
11191;SDS011;5652;48.406;10.820;2023-05-07T11:45:46;2.15;;;1.40;;
11191;SDS011;5652;48.406;10.820;2023-05-07T11:48:13;2.53;;;1.33;;
11191;SDS011;5652;48.406;10.820;2023-05-07T11:50:49;2.40;;;1.30;;
11191;SDS011;5652;48.406;10.820;2023-05-07T11:53:17;3.35;;;1.35;;
11191;SDS011;5652;48.406;10.820;2023-05-07T11:55:45;3.00;;;1.50;;
11191;SDS011;5652;48.406;10.820;2023-05-07T11:58:12;2.42;;;1.50;;
11191;SDS011;5652;48.406;10.820;2023-05-07T12:00:47;1.50;;;1.40;;
11191;SDS011;5652;48.406;10.820;2023-05-07T12:03:14;2.85;;;1.40;;
11191;SDS011;5652;48.406;10.820;2023-05-07T12:05:42;2.00;;;1.38;;
11191;SDS011;5652;48.406;10.820;2023-05-07T12:08:13;2.90;;;1.80;;
11191;SDS011;5652;48.406;10.820;2023-05-07T12:10:41;2.28;;;1.40;;
11191;SDS011;5652;48.406;10.820;2023-05-07T12:13:13;2.15;;;1.23;;
11191;SDS011;5652;48.406;10.820;2023-05-07T12:15:44;1.65;;;1.30;;
11191;SDS011;5652;48.406;10.820;2023-05-07T12:18:11;2.63;;;1.45;;
11191;SDS011;5652;48.406;10.820;2023-05-07T12:20:38;3.05;;;1.52;;
11191;SDS011;5652;48.406;10.820;2023-05-07T12:23:06;2.90;;;1.50;;
11191;SDS011;5652;48.406;10.820;2023-05-07T12:25:34;3.70;;;1.58;;
11191;SDS011;5652;48.406;10.820;2023-05-07T12:28:02;2.53;;;1.40;;
11191;SDS011;5652;48.406;10.820;2023-05-07T12:30:30;2.50;;;1.40;;
11191;SDS011;5652;48.406;10.820;2023-05-07T12:32:59;3.40;;;1.60;;
11191;SDS011;5652;48.406;10.820;2023-05-07T12:35:27;4.25;;;1.55;;
11191;SDS011;5652;48.406;10.820;2023-05-07T12:37:55;2.10;;;1.50;;
11191;SDS011;5652;48.406;10.820;2023-05-07T12:40:35;1.80;;;1.40;;
11191;SDS011;5652;48.406;10.820;2023-05-07T12:43:02;2.53;;;1.40;;
11191;SDS011;5652;48.406;10.820;2023-05-07T12:45:30;2.83;;;1.40;;
11191;SDS011;5652;48.406;10.820;2023-05-07T12:48:02;2.05;;;1.60;;
11191;SDS011;5652;48.406;10.820;2023-05-07T12:50:30;3.38;;;1.50;;
11191;SDS011;5652;48.406;10.820;2023-05-07T12:52:59;2.65;;;1.60;;
11191;SDS011;5652;48.406;10.820;2023-05-07T12:55:28;1.73;;;1.53;;
11191;SDS011;5652;48.406;10.820;2023-05-07T12:57:55;2.08;;;1.48;;
11191;SDS011;5652;48.406;10.820;2023-05-07T13:00:33;2.38;;;1.40;;
11191;SDS011;5652;48.406;10.820;2023-05-07T13:03:02;2.00;;;1.57;;
11191;SDS011;5652;48.406;10.820;2023-05-07T13:05:29;1.60;;;1.42;;
11191;SDS011;5652;48.406;10.820;2023-05-07T13:07:56;2.35;;;1.48;;
11191;SDS011;5652;48.406;10.820;2023-05-07T13:10:24;2.10;;;1.50;;
11191;SDS011;5652;48.406;10.820;2023-05-07T13:12:51;2.78;;;1.70;;
11191;SDS011;5652;48.406;10.820;2023-05-07T13:15:19;2.70;;;1.50;;
11191;SDS011;5652;48.406;10.820;2023-05-07T13:17:46;2.45;;;1.50;;
11191;SDS011;5652;48.406;10.820;2023-05-07T13:20:15;2.93;;;1.40;;
11191;SDS011;5652;48.406;10.820;2023-05-07T13:22:45;2.13;;;1.40;;
11191;SDS011;5652;48.406;10.820;2023-05-07T13:25:12;1.85;;;1.40;;
11191;SDS011;5652;48.406;10.820;2023-05-07T13:27:40;3.87;;;1.30;;
11191;SDS011;5652;48.406;10.820;2023-05-07T13:30:07;3.10;;;1.50;;
11191;SDS011;5652;48.406;10.820;2023-05-07T13:32:34;2.27;;;1.60;;
11191;SDS011;5652;48.406;10.820;2023-05-07T13:35:02;2.17;;;1.50;;
11191;SDS011;5652;48.406;10.820;2023-05-07T13:37:31;2.22;;;1.40;;
11191;SDS011;5652;48.406;10.820;2023-05-07T13:39:58;1.80;;;1.38;;
11191;SDS011;5652;48.406;10.820;2023-05-07T13:42:25;3.17;;;1.60;;
11191;SDS011;5652;48.406;10.820;2023-05-07T13:44:52;2.88;;;1.50;;
11191;SDS011;5652;48.406;10.820;2023-05-07T13:47:19;1.88;;;1.30;;
11191;SDS011;5652;48.406;10.820;2023-05-07T13:49:47;1.98;;;1.30;;
11191;SDS011;5652;48.406;10.820;2023-05-07T13:52:15;2.07;;;1.40;;
11191;SDS011;5652;48.406;10.820;2023-05-07T13:54:44;1.87;;;1.40;;
11191;SDS011;5652;48.406;10.820;2023-05-07T13:57:11;2.72;;;1.60;;
11191;SDS011;5652;48.406;10.820;2023-05-07T13:59:38;2.08;;;1.48;;
11191;SDS011;5652;48.406;10.820;2023-05-07T14:02:05;2.85;;;1.50;;
11191;SDS011;5652;48.406;10.820;2023-05-07T14:04:34;3.05;;;1.60;;
11191;SDS011;5652;48.406;10.820;2023-05-07T14:07:01;2.40;;;1.48;;
11191;SDS011;5652;48.406;10.820;2023-05-07T14:09:28;2.50;;;1.30;;
11191;SDS011;5652;48.406;10.820;2023-05-07T14:11:56;2.30;;;1.35;;
11191;SDS011;5652;48.406;10.820;2023-05-07T14:14:24;2.50;;;1.80;;
11191;SDS011;5652;48.406;10.820;2023-05-07T14:16:51;2.55;;;1.60;;
11191;SDS011;5652;48.406;10.820;2023-05-07T14:19:18;2.80;;;1.40;;
11191;SDS011;5652;48.406;10.820;2023-05-07T14:21:47;2.08;;;1.50;;
11191;SDS011;5652;48.406;10.820;2023-05-07T14:24:14;2.42;;;1.50;;
11191;SDS011;5652;48.406;10.820;2023-05-07T14:26:41;2.90;;;1.30;;
11191;SDS011;5652;48.406;10.820;2023-05-07T14:29:11;1.88;;;1.58;;
11191;SDS011;5652;48.406;10.820;2023-05-07T14:31:40;2.05;;;1.55;;
11191;SDS011;5652;48.406;10.820;2023-05-07T14:34:08;2.85;;;1.55;;
11191;SDS011;5652;48.406;10.820;2023-05-07T14:36:35;2.00;;;1.50;;
11191;SDS011;5652;48.406;10.820;2023-05-07T14:39:02;2.13;;;1.57;;
11191;SDS011;5652;48.406;10.820;2023-05-07T14:41:30;1.90;;;1.40;;
11191;SDS011;5652;48.406;10.820;2023-05-07T14:43:58;2.70;;;1.40;;
11191;SDS011;5652;48.406;10.820;2023-05-07T14:46:26;2.15;;;1.35;;
11191;SDS011;5652;48.406;10.820;2023-05-07T14:48:56;3.53;;;1.50;;
11191;SDS011;5652;48.406;10.820;2023-05-07T14:51:23;2.23;;;1.50;;
11191;SDS011;5652;48.406;10.820;2023-05-07T14:53:50;2.35;;;1.60;;
11191;SDS011;5652;48.406;10.820;2023-05-07T14:56:18;3.33;;;1.50;;
11191;SDS011;5652;48.406;10.820;2023-05-07T14:58:46;2.10;;;1.65;;
11191;SDS011;5652;48.406;10.820;2023-05-07T15:01:13;2.22;;;1.70;;